Time;durP1;ratioP1;P1;durP2;ratioP2;P2;SDS_P1;SDS_P2;PMS_P1;PMS_P2;Temp;Humidity;BMP_temperature;BMP_pressure;BME280_temperature;BME280_humidity;BME280_pressure;Samples;Min_cycle;Max_cycle;Signal;HPM_P1;HPM_P2
2021/11/04 00:00:24;;;;;;;34.10;22.50;;;5.80;99.90;;;;;;5128904;27;39887;-72
2021/11/04 00:02:50;;;;;;;29.97;21.87;;;5.80;99.90;;;;;;5139839;27;38625;-73
2021/11/04 00:05:17;;;;;;;24.93;19.17;;;5.70;99.90;;;;;;5130442;27;38639;-74
2021/11/04 00:07:45;;;;;;;29.57;21.53;;;5.60;99.90;;;;;;5138214;27;37375;-73
2021/11/04 00:10:12;;;;;;;20.00;17.27;;;5.60;99.90;;;;;;5132560;27;40094;-73
2021/11/04 00:12:38;;;;;;;28.67;21.60;;;5.60;99.90;;;;;;5137706;27;38908;-74
2021/11/04 00:15:05;;;;;;;22.27;17.60;;;5.60;99.90;;;;;;5132576;27;38473;-74
2021/11/04 00:17:31;;;;;;;21.23;17.10;;;5.50;99.90;;;;;;5138349;27;38248;-73
2021/11/04 00:19:57;;;;;;;24.63;19.00;;;5.50;99.90;;;;;;5116160;27;39789;-73
2021/11/04 00:22:23;;;;;;;23.60;17.33;;;5.50;99.90;;;;;;5134597;27;37062;-73
2021/11/04 00:24:49;;;;;;;24.87;17.70;;;5.50;99.90;;;;;;5135897;27;37362;-74
2021/11/04 00:27:15;;;;;;;24.33;17.77;;;5.50;99.90;;;;;;5134863;27;37370;-73
2021/11/04 00:29:41;;;;;;;27.67;20.57;;;5.50;99.90;;;;;;5129816;27;39890;-73
2021/11/04 00:32:08;;;;;;;23.90;19.43;;;5.50;99.90;;;;;;5133908;27;38214;-73
2021/11/04 00:34:34;;;;;;;29.77;19.57;;;5.50;99.90;;;;;;5136965;27;38192;-73
2021/11/04 00:37:00;;;;;;;22.23;17.57;;;5.50;99.90;;;;;;5137774;27;38127;-72
2021/11/04 00:39:26;;;;;;;26.83;20.67;;;5.50;99.90;;;;;;5137162;27;39451;-72
2021/11/04 00:41:52;;;;;;;25.37;18.97;;;5.50;99.90;;;;;;5134516;27;37033;-75
2021/11/04 00:44:18;;;;;;;31.20;20.27;;;5.50;99.90;;;;;;5127796;27;38583;-74
2021/11/04 00:46:44;;;;;;;26.80;19.67;;;5.60;99.90;;;;;;5130752;27;37349;-74
2021/11/04 00:49:11;;;;;;;24.43;18.33;;;5.50;99.90;;;;;;5133994;27;38831;-74
2021/11/04 00:51:37;;;;;;;21.90;17.33;;;5.50;99.90;;;;;;5128403;27;37183;-74
2021/11/04 00:54:03;;;;;;;25.17;20.43;;;5.50;99.90;;;;;;5124215;27;38819;-74
2021/11/04 00:56:29;;;;;;;22.53;16.53;;;5.50;99.90;;;;;;5125682;27;37341;-74
2021/11/04 00:58:55;;;;;;;25.03;19.07;;;5.40;99.90;;;;;;5135610;27;39184;-74
2021/11/04 01:01:23;;;;;;;25.80;17.23;;;5.40;99.90;;;;;;5135531;27;36392;-74
2021/11/04 01:03:50;;;;;;;27.03;18.93;;;5.40;99.90;;;;;;5130598;27;38866;-74
2021/11/04 01:06:18;;;;;;;20.37;16.53;;;5.40;99.90;;;;;;5139794;27;38860;-75
2021/11/04 01:08:44;;;;;;;28.87;20.53;;;5.40;99.90;;;;;;5140391;27;38726;-74
2021/11/04 01:11:10;;;;;;;22.93;16.37;;;5.40;99.90;;;;;;5129505;27;38346;-72
2021/11/04 01:13:37;;;;;;;27.33;20.13;;;5.40;99.90;;;;;;5142896;27;37947;-74
2021/11/04 01:16:04;;;;;;;27.67;19.93;;;5.50;99.90;;;;;;5156394;27;37626;-74
2021/11/04 01:18:31;;;;;;;31.93;22.67;;;5.50;99.90;;;;;;5157100;27;38414;-74
2021/11/04 01:20:57;;;;;;;25.20;19.83;;;5.50;99.90;;;;;;5159106;27;37405;-74
2021/11/04 01:23:24;;;;;;;31.10;21.43;;;5.50;99.90;;;;;;5135042;27;38445;-74
2021/11/04 01:25:50;;;;;;;18.07;14.87;;;5.50;99.90;;;;;;5156796;27;37469;-74
2021/11/04 01:28:17;;;;;;;23.00;17.50;;;5.50;99.90;;;;;;5157622;27;39585;-74
2021/11/04 01:30:43;;;;;;;18.50;14.87;;;5.50;99.90;;;;;;5130713;27;42274;-74
2021/11/04 01:33:09;;;;;;;24.93;19.77;;;5.40;99.90;;;;;;5152758;27;38436;-75
2021/11/04 01:35:36;;;;;;;23.93;18.10;;;5.40;99.90;;;;;;5157204;27;36976;-75
2021/11/04 01:38:05;;;;;;;24.07;18.13;;;5.40;99.90;;;;;;5136961;27;39772;-74
2021/11/04 01:40:33;;;;;;;22.77;17.63;;;5.40;99.90;;;;;;5155145;27;39000;-74
2021/11/04 01:43:00;;;;;;;32.20;20.13;;;5.40;99.90;;;;;;5154804;27;36975;-74
2021/11/04 01:45:26;;;;;;;29.37;19.87;;;5.30;99.90;;;;;;5135758;27;37113;-74
2021/11/04 01:47:53;;;;;;;19.50;14.80;;;5.40;99.90;;;;;;5156113;27;38319;-74
2021/11/04 01:50:22;;;;;;;17.93;14.97;;;5.40;99.90;;;;;;5147383;27;38289;-74
2021/11/04 01:52:49;;;;;;;22.40;17.30;;;5.40;99.90;;;;;;5131472;27;38758;-74
2021/11/04 01:55:20;;;;;;;25.70;19.30;;;5.40;99.90;;;;;;5128555;27;38226;-74
2021/11/04 01:57:47;;;;;;;23.17;17.03;;;5.40;99.90;;;;;;5130553;27;39975;-74
2021/11/04 02:00:16;;;;;;;22.57;17.13;;;5.40;99.90;;;;;;5124594;27;36966;-74
2021/11/04 02:02:46;;;;;;;20.90;15.83;;;5.40;99.90;;;;;;5120191;27;37831;-73
2021/11/04 02:05:18;;;;;;;23.30;17.73;;;5.40;99.90;;;;;;5127985;27;38098;-73
2021/11/04 02:08:06;;;;;;;22.52;16.13;;;5.40;99.90;;;;;;5129909;27;37166;-74
2021/11/04 02:10:51;;;;;;;24.77;17.03;;;5.50;99.90;;;;;;5124378;27;47319;-74
2021/11/04 02:13:31;;;;;;;27.57;18.37;;;5.40;99.90;;;;;;5111314;27;38030;-72
2021/11/04 02:16:01;;;;;;;21.80;15.50;;;5.50;99.90;;;;;;5111376;27;38874;-74
2021/11/04 02:18:33;;;;;;;23.50;16.67;;;5.50;99.90;;;;;;5113753;27;47306;-73
2021/11/04 02:21:08;;;;;;;31.60;21.17;;;5.50;99.90;;;;;;5120184;27;39888;-74
2021/11/04 02:23:42;;;;;;;24.97;17.97;;;5.40;99.90;;;;;;5149926;27;48716;-73
2021/11/04 02:26:09;;;;;;;21.07;16.30;;;5.40;99.90;;;;;;5122045;27;35454;-73
2021/11/04 02:28:39;;;;;;;29.37;19.50;;;5.40;99.90;;;;;;5130151;27;38685;-73
2021/11/04 02:31:10;;;;;;;21.47;17.33;;;5.40;99.90;;;;;;5128446;27;37292;-73
2021/11/04 02:33:38;;;;;;;31.80;21.07;;;5.40;99.90;;;;;;5119267;27;38120;-73
2021/11/04 02:36:06;;;;;;;19.93;14.57;;;5.40;99.90;;;;;;5130345;27;37104;-73
2021/11/04 02:38:33;;;;;;;24.67;17.87;;;5.40;99.90;;;;;;5120354;27;39393;-75
2021/11/04 02:41:01;;;;;;;27.47;19.43;;;5.40;99.90;;;;;;5121470;27;37834;-75
2021/11/04 02:43:30;;;;;;;24.47;17.70;;;5.40;99.90;;;;;;5148368;27;47490;-74
2021/11/04 02:45:58;;;;;;;24.93;17.63;;;5.30;99.90;;;;;;5128551;27;38124;-74
2021/11/04 02:48:25;;;;;;;23.67;16.80;;;5.30;99.90;;;;;;5133934;27;39198;-74
2021/11/04 02:50:52;;;;;;;27.57;18.97;;;5.30;99.90;;;;;;5137250;27;37143;-74
2021/11/04 02:53:23;;;;;;;29.10;18.83;;;5.20;99.90;;;;;;5138426;27;38016;-74
2021/11/04 02:55:50;;;;;;;25.83;18.53;;;5.10;99.90;;;;;;5136390;27;38550;-73
2021/11/04 02:58:17;;;;;;;20.93;15.37;;;5.10;99.90;;;;;;5132403;27;40115;-73
2021/11/04 03:00:50;;;;;;;20.27;14.80;;;4.90;99.90;;;;;;5130810;27;39282;-72
2021/11/04 03:03:17;;;;;;;21.70;16.17;;;5.00;99.90;;;;;;5122910;27;37328;-74
2021/11/04 03:05:44;;;;;;;23.40;16.63;;;5.00;99.90;;;;;;5136487;27;37797;-74
2021/11/04 03:08:11;;;;;;;25.43;16.37;;;5.00;99.90;;;;;;5125933;27;37840;-74
2021/11/04 03:10:37;;;;;;;19.23;13.93;;;5.00;99.90;;;;;;5155085;27;38323;-74
2021/11/04 03:13:04;;;;;;;19.87;15.60;;;5.00;99.90;;;;;;5131144;27;39742;-74
2021/11/04 03:15:37;;;;;;;19.20;14.60;;;5.00;99.90;;;;;;5153358;27;37358;-74
2021/11/04 03:18:05;;;;;;;29.73;19.00;;;4.90;99.90;;;;;;5161791;27;38972;-73
2021/11/04 03:20:34;;;;;;;28.10;18.03;;;4.90;99.90;;;;;;5138797;27;36403;-75
2021/11/04 03:23:02;;;;;;;30.17;18.90;;;4.90;99.90;;;;;;5159408;27;38867;-73
2021/11/04 03:25:29;;;;;;;20.10;15.70;;;4.90;99.90;;;;;;5151344;27;48370;-73
2021/11/04 03:27:56;;;;;;;19.33;14.73;;;5.00;99.90;;;;;;5137092;27;39059;-73
2021/11/04 03:30:25;;;;;;;20.70;15.00;;;5.00;99.90;;;;;;5154146;27;37924;-73
2021/11/04 03:32:53;;;;;;;26.27;17.23;;;4.90;99.90;;;;;;5151173;27;38205;-73
2021/11/04 03:35:20;;;;;;;32.57;18.33;;;4.90;99.90;;;;;;5130844;27;38030;-73
2021/11/04 03:37:49;;;;;;;25.67;18.10;;;4.80;99.90;;;;;;5128974;27;39175;-73
2021/11/04 03:40:17;;;;;;;25.50;16.23;;;4.90;99.90;;;;;;5150125;27;38508;-73
2021/11/04 03:42:43;;;;;;;24.27;16.33;;;4.90;99.90;;;;;;5151226;27;38111;-74
2021/11/04 03:45:10;;;;;;;27.33;17.93;;;4.80;99.90;;;;;;5123737;27;37638;-75
2021/11/04 03:47:37;;;;;;;19.80;13.33;;;4.80;99.90;;;;;;5130551;27;39815;-72
2021/11/04 03:50:05;;;;;;;32.43;18.87;;;4.80;99.90;;;;;;5129428;27;38721;-74
2021/11/04 03:52:32;;;;;;;22.20;16.27;;;4.80;99.90;;;;;;5132714;27;47149;-74
2021/11/04 03:54:59;;;;;;;25.60;15.93;;;4.80;99.90;;;;;;5132452;27;39147;-74
2021/11/04 03:57:27;;;;;;;29.07;16.90;;;4.80;99.90;;;;;;5128076;27;40676;-74
2021/11/04 03:59:54;;;;;;;19.93;14.57;;;4.80;99.90;;;;;;5131124;27;39127;-74
2021/11/04 04:02:23;;;;;;;23.10;16.43;;;4.80;99.90;;;;;;5134092;27;39028;-74
2021/11/04 04:04:57;;;;;;;24.13;17.20;;;4.90;99.90;;;;;;5129372;27;37747;-74
2021/11/04 04:07:31;;;;;;;24.20;16.23;;;4.90;99.90;;;;;;5127563;27;39680;-74
2021/11/04 04:09:57;;;;;;;21.37;16.37;;;5.00;99.90;;;;;;5132101;27;38527;-74
2021/11/04 04:12:24;;;;;;;23.50;17.27;;;5.00;99.90;;;;;;5136991;27;38817;-74
2021/11/04 04:14:50;;;;;;;29.30;19.17;;;5.10;99.90;;;;;;5130013;27;39063;-74
2021/11/04 04:17:20;;;;;;;36.07;22.80;;;5.10;99.90;;;;;;5152932;27;37525;-74
2021/11/04 04:19:50;;;;;;;25.70;18.70;;;5.10;99.90;;;;;;5136230;27;39189;-74
2021/11/04 04:22:18;;;;;;;21.23;16.10;;;5.20;99.90;;;;;;5137464;27;38016;-74
2021/11/04 04:24:44;;;;;;;26.27;17.60;;;5.20;99.90;;;;;;5156833;27;38396;-74
2021/11/04 04:27:11;;;;;;;24.20;17.27;;;5.20;99.90;;;;;;5154571;27;39321;-74
2021/11/04 04:29:37;;;;;;;19.07;15.00;;;5.30;99.90;;;;;;5131512;27;39720;-74
2021/11/04 04:32:04;;;;;;;21.90;16.77;;;5.40;99.90;;;;;;5150503;27;37361;-75
2021/11/04 04:34:30;;;;;;;26.33;18.10;;;5.50;99.90;;;;;;5151047;27;36922;-75
2021/11/04 04:36:56;;;;;;;29.40;20.33;;;5.60;99.90;;;;;;5156897;27;40016;-73
2021/11/04 04:39:22;;;;;;;28.90;20.47;;;5.70;99.90;;;;;;5156862;27;38336;-74
2021/11/04 04:41:48;;;;;;;23.10;16.80;;;5.80;99.90;;;;;;5153530;27;38653;-74
2021/11/04 04:44:14;;;;;;;34.20;21.27;;;5.80;99.90;;;;;;5150662;27;37510;-74
2021/11/04 04:46:41;;;;;;;21.10;16.30;;;5.90;99.90;;;;;;5139644;27;38788;-74
2021/11/04 04:49:07;;;;;;;30.70;21.17;;;6.00;99.90;;;;;;5111612;27;38714;-74
2021/11/04 04:51:33;;;;;;;19.00;14.53;;;6.10;99.90;;;;;;5121446;27;38460;-74
2021/11/04 04:53:59;;;;;;;36.50;22.37;;;6.20;99.90;;;;;;5113592;27;37945;-74
2021/11/04 04:56:25;;;;;;;28.23;18.87;;;6.20;99.90;;;;;;5112713;27;39248;-72
2021/11/04 04:58:51;;;;;;;16.27;12.67;;;6.30;99.90;;;;;;5123948;27;39200;-74
2021/11/04 05:01:17;;;;;;;15.10;12.83;;;6.30;99.90;;;;;;5129039;27;38051;-74
2021/11/04 05:03:43;;;;;;;24.60;15.37;;;6.40;99.90;;;;;;5137631;27;37824;-73
2021/11/04 05:06:09;;;;;;;22.27;16.40;;;6.40;99.90;;;;;;5144286;27;39482;-74
2021/11/04 05:08:35;;;;;;;25.53;14.40;;;6.40;99.90;;;;;;5109571;27;39250;-75
2021/11/04 05:11:02;;;;;;;18.87;13.63;;;6.40;99.90;;;;;;5130564;27;38401;-74
2021/11/04 05:13:28;;;;;;;16.87;12.37;;;6.40;99.90;;;;;;5128277;27;37550;-74
2021/11/04 05:15:54;;;;;;;13.97;11.57;;;6.40;99.90;;;;;;5129632;27;37600;-72
2021/11/04 05:18:20;;;;;;;14.53;11.50;;;6.40;99.90;;;;;;5130672;27;39000;-74
2021/11/04 05:20:46;;;;;;;17.07;11.87;;;6.40;99.90;;;;;;5130791;27;38706;-74
2021/11/04 05:23:12;;;;;;;16.67;10.33;;;6.40;99.90;;;;;;5135082;27;36186;-74
2021/11/04 05:25:39;;;;;;;19.40;13.37;;;6.30;99.90;;;;;;5136090;27;39471;-75
2021/11/04 05:28:05;;;;;;;15.97;11.43;;;6.30;99.90;;;;;;5128326;27;37406;-74
2021/11/04 05:30:31;;;;;;;15.77;11.37;;;6.20;99.90;;;;;;5134174;27;37935;-74
2021/11/04 05:32:57;;;;;;;22.80;15.10;;;6.20;99.90;;;;;;5149400;27;36315;-73
2021/11/04 05:35:23;;;;;;;18.90;12.50;;;6.10;99.90;;;;;;5135020;27;38933;-74
2021/11/04 05:37:49;;;;;;;19.53;13.27;;;6.10;99.90;;;;;;5131920;27;38259;-74
2021/11/04 05:40:16;;;;;;;20.80;12.50;;;6.10;99.90;;;;;;5129057;27;37874;-72
2021/11/04 05:42:42;;;;;;;13.10;9.63;;;6.10;99.90;;;;;;5127155;27;37460;-74
2021/11/04 05:45:09;;;;;;;23.93;15.47;;;6.20;99.90;;;;;;5130005;27;37686;-74
2021/11/04 05:47:35;;;;;;;13.17;10.00;;;6.20;99.90;;;;;;5125372;27;37576;-74
2021/11/04 05:50:01;;;;;;;35.37;18.40;;;6.30;99.90;;;;;;5111853;27;37157;-73
2021/11/04 05:52:27;;;;;;;17.83;12.80;;;6.40;99.90;;;;;;5109595;27;45534;-72
2021/11/04 05:54:55;;;;;;;27.77;17.33;;;6.60;99.90;;;;;;5134610;27;38967;-74
2021/11/04 05:57:22;;;;;;;12.10;10.47;;;6.70;99.90;;;;;;5124383;27;38108;-74
2021/11/04 05:59:49;;;;;;;18.83;12.90;;;6.80;99.90;;;;;;5125994;27;36802;-74
2021/11/04 06:02:18;;;;;;;19.47;11.20;;;6.70;99.90;;;;;;5131288;27;37410;-74
2021/11/04 06:04:45;;;;;;;20.20;12.60;;;6.70;99.90;;;;;;5129180;27;39240;-74
2021/11/04 06:07:15;;;;;;;21.57;13.67;;;6.60;99.90;;;;;;5130681;27;37510;-74
2021/11/04 06:09:42;;;;;;;18.53;13.57;;;6.60;99.90;;;;;;5130213;27;39225;-73
2021/11/04 06:12:08;;;;;;;11.27;9.17;;;6.60;99.90;;;;;;5130156;27;36426;-74
2021/11/04 06:14:35;;;;;;;20.83;13.60;;;6.70;99.90;;;;;;5126923;27;38981;-74
2021/11/04 06:17:02;;;;;;;14.43;9.93;;;6.70;99.90;;;;;;5131517;27;39493;-73
2021/11/04 06:19:28;;;;;;;15.87;12.47;;;6.80;99.90;;;;;;5125016;27;47113;-74
2021/11/04 06:21:54;;;;;;;10.57;9.00;;;6.90;99.90;;;;;;5131822;27;38681;-74
2021/11/04 06:24:21;;;;;;;23.50;14.93;;;7.00;99.90;;;;;;5108411;27;39535;-74
2021/11/04 06:26:47;;;;;;;13.47;10.70;;;7.10;99.90;;;;;;5115714;27;38374;-77
2021/11/04 06:29:13;;;;;;;16.70;11.00;;;7.30;99.90;;;;;;5127181;27;38627;-77
2021/11/04 06:31:39;;;;;;;19.57;12.63;;;7.70;99.90;;;;;;5147584;27;38527;-77
2021/11/04 06:34:06;;;;;;;24.73;14.07;;;7.70;99.90;;;;;;5121149;27;39594;-75
2021/11/04 06:36:32;;;;;;;22.33;13.37;;;7.80;99.90;;;;;;5139013;27;38684;-76
2021/11/04 06:39:00;;;;;;;24.03;13.50;;;7.80;99.90;;;;;;5141499;27;38016;-76
2021/11/04 06:41:26;;;;;;;23.53;13.53;;;7.80;99.90;;;;;;5140196;27;37878;-75
2021/11/04 06:43:52;;;;;;;30.47;16.23;;;7.90;99.90;;;;;;5138296;27;38512;-76
2021/11/04 06:46:23;;;;;;;28.43;15.80;;;7.90;99.90;;;;;;5140319;27;36293;-75
2021/11/04 06:48:57;;;;;;;14.13;9.57;;;8.00;99.90;;;;;;5138964;27;37836;-75
2021/11/04 06:51:28;;;;;;;18.30;10.17;;;8.00;99.90;;;;;;5138965;27;37131;-75
2021/11/04 06:53:55;;;;;;;20.60;10.40;;;8.00;99.90;;;;;;5131986;27;39407;-74
2021/11/04 06:56:25;;;;;;;21.10;10.90;;;8.10;99.90;;;;;;5140408;27;39521;-75
2021/11/04 06:58:54;;;;;;;25.83;15.97;;;8.10;99.90;;;;;;5142148;27;39167;-76
2021/11/04 07:01:21;;;;;;;15.93;11.47;;;8.30;99.90;;;;;;5140560;27;40191;-75
2021/11/04 07:04:00;;;;;;;16.97;11.27;;;8.40;99.90;;;;;;5137858;27;38999;-75
2021/11/04 07:06:29;;;;;;;29.87;14.63;;;8.50;99.90;;;;;;5135723;27;40302;-75
2021/11/04 07:08:56;;;;;;;13.53;9.93;;;8.50;99.90;;;;;;5137963;27;41037;-75
2021/11/04 07:11:23;;;;;;;16.87;11.13;;;8.40;99.90;;;;;;5140936;27;37609;-75
2021/11/04 07:13:52;;;;;;;17.13;11.80;;;8.50;99.90;;;;;;5138363;27;40505;-75
2021/11/04 07:16:23;;;;;;;20.03;10.67;;;8.50;99.90;;;;;;5138932;27;39373;-75
2021/11/04 07:18:54;;;;;;;23.87;14.53;;;8.60;99.90;;;;;;5140310;27;39770;-76
2021/11/04 07:21:20;;;;;;;16.97;9.90;;;8.70;99.90;;;;;;5139505;27;36978;-75
2021/11/04 07:24:07;;;;;;;20.33;11.87;;;8.80;99.90;;;;;;5137086;27;39112;-76
2021/11/04 07:26:41;;;;;;;24.43;14.97;;;8.80;99.90;;;;;;5129662;27;47754;-76
2021/11/04 07:29:10;;;;;;;22.03;13.53;;;8.90;99.90;;;;;;5129209;27;38892;-75
2021/11/04 07:31:38;;;;;;;19.33;12.27;;;9.00;99.90;;;;;;5133777;27;48977;-76
2021/11/04 07:34:06;;;;;;;17.00;9.80;;;9.10;99.90;;;;;;5147612;27;38514;-75
2021/11/04 07:36:35;;;;;;;23.10;14.57;;;9.30;99.90;;;;;;5142561;27;37262;-75
2021/11/04 07:39:03;;;;;;;23.20;16.33;;;9.30;99.90;;;;;;5147573;27;38818;-75
2021/11/04 07:41:31;;;;;;;21.57;14.50;;;9.40;99.90;;;;;;5127712;27;38922;-75
2021/11/04 07:43:58;;;;;;;10.80;7.23;;;9.50;99.90;;;;;;5130144;27;39372;-75
2021/11/04 07:46:25;;;;;;;8.23;4.40;;;9.50;99.90;;;;;;5128409;27;40116;-75
2021/11/04 07:48:52;;;;;;;7.93;3.80;;;9.60;99.90;;;;;;5137573;27;38854;-75
2021/11/04 07:51:18;;;;;;;13.23;3.13;;;9.70;99.90;;;;;;5139673;27;38810;-75
2021/11/04 07:53:44;;;;;;;7.10;3.47;;;9.70;99.90;;;;;;5145646;27;39458;-75
2021/11/04 07:56:11;;;;;;;9.20;3.83;;;9.80;99.90;;;;;;5145627;27;38875;-75
2021/11/04 07:58:38;;;;;;;7.47;3.77;;;9.90;99.90;;;;;;5146602;27;38193;-75
2021/11/04 08:01:05;;;;;;;8.80;3.40;;;9.90;99.90;;;;;;5141533;27;36656;-76
2021/11/04 08:03:31;;;;;;;10.13;3.47;;;9.90;99.90;;;;;;5134781;27;39247;-76
2021/11/04 08:05:57;;;;;;;11.00;4.33;;;10.00;99.90;;;;;;5137151;27;39312;-76
2021/11/04 08:08:24;;;;;;;5.33;2.53;;;10.00;99.90;;;;;;5135689;27;39085;-75
2021/11/04 08:10:54;;;;;;;7.57;2.20;;;10.10;99.90;;;;;;5134183;27;37099;-75
2021/11/04 08:13:21;;;;;;;4.83;1.93;;;10.30;99.90;;;;;;5140109;27;39244;-75
2021/11/04 08:15:47;;;;;;;8.87;2.23;;;10.40;99.90;;;;;;5119743;27;38551;-75
2021/11/04 08:18:14;;;;;;;5.00;1.50;;;10.60;99.90;;;;;;5136970;27;38306;-77
2021/11/04 08:20:40;;;;;;;7.57;1.67;;;10.70;99.90;;;;;;5138246;27;38757;-77
2021/11/04 08:23:15;;;;;;;6.17;1.80;;;10.80;99.90;;;;;;5121927;27;39604;-78
2021/11/04 08:25:43;;;;;;;8.80;1.93;;;10.90;99.90;;;;;;5132214;27;37479;-78
2021/11/04 08:28:10;;;;;;;7.30;2.27;;;10.90;99.90;;;;;;5140873;27;37989;-77
2021/11/04 08:30:36;;;;;;;9.13;2.23;;;11.00;99.90;;;;;;5133013;27;36591;-77
2021/11/04 08:33:03;;;;;;;12.67;3.63;;;11.00;99.90;;;;;;5131798;27;38560;-77
2021/11/04 08:35:30;;;;;;;11.83;4.20;;;11.10;99.90;;;;;;5137235;27;37406;-77
2021/11/04 08:37:56;;;;;;;8.57;3.80;;;11.30;99.90;;;;;;5142397;27;38784;-77
2021/11/04 08:40:23;;;;;;;10.23;4.03;;;11.30;99.90;;;;;;5121932;27;36173;-77
2021/11/04 08:42:50;;;;;;;8.77;3.67;;;11.40;99.90;;;;;;5121002;27;38204;-77
2021/11/04 08:45:17;;;;;;;6.87;3.33;;;11.40;99.90;;;;;;5131616;27;37348;-77
2021/11/04 08:47:43;;;;;;;8.57;3.30;;;11.40;99.90;;;;;;5125611;27;37334;-76
2021/11/04 08:50:12;;;;;;;5.07;2.40;;;11.40;99.90;;;;;;5136735;27;36102;-76
2021/11/04 08:52:39;;;;;;;5.63;2.50;;;11.50;99.90;;;;;;5140628;27;37781;-77
2021/11/04 08:55:07;;;;;;;7.10;1.83;;;11.60;99.90;;;;;;5155755;27;38310;-76
2021/11/04 08:57:34;;;;;;;5.83;1.60;;;11.60;99.90;;;;;;5129301;27;36807;-77
2021/11/04 09:00:01;;;;;;;5.60;1.87;;;11.50;99.90;;;;;;5145927;27;37948;-77
2021/11/04 09:02:28;;;;;;;6.07;1.73;;;11.60;99.90;;;;;;5124971;27;40842;-77
2021/11/04 09:04:55;;;;;;;5.83;1.70;;;11.50;99.90;;;;;;5139236;27;20089;-77
2021/11/04 09:07:21;;;;;;;4.23;1.80;;;11.50;99.90;;;;;;5135903;27;38068;-77
2021/11/04 09:09:49;;;;;;;7.00;2.23;;;11.40;99.90;;;;;;5134947;27;37757;-78
2021/11/04 09:12:16;;;;;;;7.83;2.53;;;11.40;99.90;;;;;;5139271;27;38477;-77
2021/11/04 09:14:43;;;;;;;4.90;2.50;;;11.40;99.90;;;;;;5136859;27;38779;-78
2021/11/04 09:17:12;;;;;;;6.83;2.33;;;11.50;99.90;;;;;;5137192;27;38265;-77
2021/11/04 09:19:40;;;;;;;7.97;3.00;;;11.50;99.90;;;;;;5133985;27;37281;-78
2021/11/04 09:22:06;;;;;;;13.50;3.07;;;11.70;99.90;;;;;;5134572;27;38220;-77
2021/11/04 09:24:32;;;;;;;7.07;3.20;;;11.80;99.90;;;;;;5139259;27;38263;-77
2021/11/04 09:27:02;;;;;;;6.83;2.67;;;12.00;99.90;;;;;;5138466;27;38107;-77
2021/11/04 09:29:28;;;;;;;8.97;1.80;;;12.20;99.90;;;;;;5132766;27;47275;-78
2021/11/04 09:31:56;;;;;;;3.07;1.50;;;12.30;99.90;;;;;;5135424;27;39406;-77
2021/11/04 09:34:23;;;;;;;6.27;1.10;;;12.20;99.90;;;;;;5133006;27;38192;-77
2021/11/04 09:36:49;;;;;;;9.43;1.00;;;12.10;99.90;;;;;;5134987;27;38849;-77
2021/11/04 09:39:16;;;;;;;9.97;1.40;;;12.10;99.90;;;;;;5130999;27;38166;-78
2021/11/04 09:41:43;;;;;;;6.43;0.87;;;12.20;99.90;;;;;;5145836;27;38654;-77
2021/11/04 09:44:10;;;;;;;5.93;1.23;;;12.20;99.90;;;;;;5142238;27;38317;-78
2021/11/04 09:46:37;;;;;;;5.50;1.40;;;12.30;99.90;;;;;;5143235;27;38250;-77
2021/11/04 09:49:04;;;;;;;5.33;0.87;;;12.30;99.90;;;;;;5147235;27;37956;-77
2021/11/04 09:51:30;;;;;;;3.90;1.00;;;12.20;99.90;;;;;;5145339;27;38918;-77
2021/11/04 09:53:56;;;;;;;7.23;1.23;;;12.10;99.90;;;;;;5138772;27;36866;-77
2021/11/04 09:56:23;;;;;;;7.27;1.03;;;12.00;99.90;;;;;;5134210;27;38671;-77
2021/11/04 09:58:49;;;;;;;6.43;0.93;;;11.90;99.90;;;;;;5134399;27;37480;-76
2021/11/04 10:01:25;;;;;;;3.10;0.97;;;11.70;99.90;;;;;;5140051;27;39610;-76
2021/11/04 10:03:53;;;;;;;3.57;0.60;;;11.60;99.90;;;;;;5136873;27;37934;-76
2021/11/04 10:06:26;;;;;;;1.53;0.70;;;11.50;99.90;;;;;;5137805;27;37787;-75
2021/11/04 10:08:55;;;;;;;2.97;0.90;;;11.50;99.90;;;;;;5115428;27;39008;-75
2021/11/04 10:11:26;;;;;;;4.17;0.60;;;11.50;99.90;;;;;;5146909;27;38882;-75
2021/11/04 10:14:03;;;;;;;3.43;0.97;;;11.50;99.90;;;;;;5142305;27;39240;-75
2021/11/04 10:16:31;;;;;;;1.63;0.73;;;11.50;99.90;;;;;;5144018;27;47375;-76
2021/11/04 10:19:02;;;;;;;4.47;0.80;;;11.60;99.90;;;;;;5157455;27;37085;-76
2021/11/04 10:21:31;;;;;;;2.33;1.20;;;11.60;99.90;;;;;;5142194;27;48282;-75
2021/11/04 10:23:57;;;;;;;2.00;0.60;;;11.60;99.90;;;;;;5147929;27;39082;-78
2021/11/04 10:26:44;;;;;;;2.03;0.80;;;11.60;99.90;;;;;;5167530;27;38277;-76
2021/11/04 10:29:13;;;;;;;5.70;0.83;;;11.70;99.90;;;;;;5133860;27;36322;-76
2021/11/04 10:31:49;;;;;;;2.27;1.00;;;11.80;99.90;;;;;;5164128;27;39816;-77
2021/11/04 10:34:23;;;;;;;3.47;0.70;;;11.80;99.90;;;;;;5168727;27;38397;-76
2021/11/04 10:36:49;;;;;;;2.40;0.83;;;11.80;99.90;;;;;;5162543;27;37914;-76
2021/11/04 10:39:16;;;;;;;0.87;0.70;;;11.80;99.90;;;;;;5152397;27;38190;-76
2021/11/04 10:41:44;;;;;;;2.40;0.80;;;11.80;99.90;;;;;;5152536;27;37917;-76
2021/11/04 10:44:19;;;;;;;2.33;0.97;;;11.70;99.90;;;;;;5172684;27;39886;-76
2021/11/04 10:46:51;;;;;;;5.10;0.80;;;11.70;99.90;;;;;;5151030;27;36841;-78
2021/11/04 10:49:19;;;;;;;5.88;1.30;;;11.70;99.90;;;;;;5132285;27;38829;-77
2021/11/04 10:52:00;;;;;;;6.07;1.50;;;11.80;99.90;;;;;;5151424;27;40332;-78
2021/11/04 10:54:26;;;;;;;5.57;1.60;;;11.80;99.90;;;;;;5136435;27;39690;-77
2021/11/04 10:56:54;;;;;;;6.00;1.83;;;11.90;99.90;;;;;;5152432;27;37550;-76
2021/11/04 10:59:21;;;;;;;5.60;1.50;;;12.00;99.90;;;;;;5134158;27;37660;-75
2021/11/04 11:01:51;;;;;;;8.53;2.10;;;12.10;99.90;;;;;;5167837;27;38978;-76
2021/11/04 11:04:24;;;;;;;9.37;2.00;;;12.30;99.90;;;;;;5168140;27;38310;-75
2021/11/04 11:06:52;;;;;;;12.95;2.28;;;12.40;99.90;;;;;;5152566;27;40103;-76
2021/11/04 11:09:20;;;;;;;8.27;1.97;;;12.60;99.90;;;;;;5154769;27;37994;-76
2021/11/04 11:11:49;;;;;;;6.60;2.00;;;12.80;99.90;;;;;;5132120;27;37491;-77
2021/11/04 11:14:16;;;;;;;5.60;1.67;;;13.00;99.90;;;;;;5151414;27;38391;-76
2021/11/04 11:16:50;;;;;;;8.87;2.13;;;13.10;99.90;;;;;;5151625;27;38424;-76
2021/11/04 11:19:27;;;;;;;7.68;1.95;;;13.30;99.90;;;;;;5160758;27;37483;-77
2021/11/04 11:21:54;;;;;;;6.13;1.92;;;13.50;99.90;;;;;;5144842;27;39869;-76
2021/11/04 11:24:32;;;;;;;6.37;1.87;;;13.60;99.90;;;;;;5171493;27;38615;-77
2021/11/04 11:27:00;;;;;;;6.87;2.40;;;13.80;99.90;;;;;;5146811;27;38628;-76
2021/11/04 11:29:32;;;;;;;5.97;1.30;;;13.90;99.90;;;;;;5150058;27;36142;-77
2021/11/04 11:31:58;;;;;;;5.15;1.67;;;14.10;99.90;;;;;;5172473;27;39824;-76
2021/11/04 11:34:33;;;;;;;6.32;1.17;;;14.10;99.90;;;;;;5151836;27;39125;-78
2021/11/04 11:37:11;;;;;;;2.47;1.05;;;14.30;99.90;;;;;;5171591;27;38620;-76
2021/11/04 11:39:43;;;;;;;3.90;0.83;;;14.40;99.90;;;;;;5171265;27;48420;-76
2021/11/04 11:42:12;;;;;;;10.02;0.85;;;14.50;99.90;;;;;;5146175;27;38314;-76
2021/11/04 11:44:40;;;;;;;2.28;0.88;;;14.50;99.90;;;;;;5146345;27;37215;-77
2021/11/04 11:47:09;;;;;;;3.45;1.05;;;14.50;99.90;;;;;;5169158;27;37937;-77
2021/11/04 11:49:38;;;;;;;11.68;1.50;;;14.30;99.90;;;;;;5167865;27;37246;-77
2021/11/04 11:52:23;;;;;;;7.10;1.20;;;14.20;99.90;;;;;;5144950;27;37443;-77
2021/11/04 11:54:53;;;;;;;11.10;1.25;;;14.20;99.90;;;;;;5170053;27;38086;-77
2021/11/04 11:57:19;;;;;;;6.05;1.17;;;14.20;99.90;;;;;;5148433;27;39947;-77
2021/11/04 11:59:51;;;;;;;8.48;2.00;;;14.30;99.90;;;;;;5149056;27;35816;-77
2021/11/04 12:02:42;;;;;;;6.45;1.40;;;14.40;99.90;;;;;;5131897;27;38972;-77
2021/11/04 12:05:27;;;;;;;3.28;0.80;;;14.60;99.90;;;;;;5136524;27;39280;-76
2021/11/04 12:08:13;;;;;;;3.05;0.60;;;14.80;99.90;;;;;;5151935;27;38142;-77
2021/11/04 12:10:40;;;;;;;3.28;0.40;;;15.20;99.90;;;;;;5145270;27;46817;-77
2021/11/04 12:13:27;;;;;;;2.90;0.50;;;15.40;99.90;;;;;;5141176;27;39624;-77
2021/11/04 12:16:20;;;;;;;2.45;0.40;;;15.30;99.90;;;;;;5145625;27;39042;-75
2021/11/04 12:18:58;;;;;;;4.05;0.30;;;15.00;99.90;;;;;;5162980;27;48781;-76
2021/11/04 12:21:28;;;;;;;3.53;0.60;;;14.90;99.90;;;;;;5136440;27;39059;-78
2021/11/04 12:23:56;;;;;;;2.05;0.25;;;14.70;99.90;;;;;;5134860;27;39382;-79
2021/11/04 12:26:37;;;;;;;4.47;0.50;;;14.60;99.90;;;;;;5158803;27;38307;-76
2021/11/04 12:29:05;;;;;;;2.80;0.50;;;14.60;99.90;;;;;;5140331;27;38622;-78
2021/11/04 12:31:33;;;;;;;4.15;0.57;;;14.70;99.90;;;;;;5151127;27;37101;-78
2021/11/04 12:34:01;;;;;;;6.47;1.02;;;14.80;99.90;;;;;;5157876;27;39868;-74
2021/11/04 12:36:35;;;;;;;2.17;0.50;;;15.00;99.90;;;;;;5121992;27;46658;-78
2021/11/04 12:39:23;;;;;;;6.85;0.50;;;14.90;99.90;;;;;;5126541;27;39600;-79
2021/11/04 12:41:51;;;;;;;1.10;0.22;;;14.80;99.90;;;;;;5143258;27;49062;-75
2021/11/04 12:44:25;;;;;;;1.70;0.40;;;14.80;99.90;;;;;;5145507;27;39367;-75
2021/11/04 12:46:51;;;;;;;2.92;0.43;;;14.80;99.90;;;;;;5140381;27;38580;-78